Time;durP1;ratioP1;P1;durP2;ratioP2;P2;SDS_P1;SDS_P2;PMS_P1;PMS_P2;Temp;Humidity;BMP_temperature;BMP_pressure;BME280_temperature;BME280_humidity;BME280_pressure;Samples;Min_cycle;Max_cycle;Signal;HPM_P1;HPM_P2
2023/06/19 00:01:08;;;;;;;13.82;8.23;;;;;;;18.86;84.83;99234.69;5008933;28;20048;-94
2023/06/19 00:03:33;;;;;;;13.15;9.77;;;;;;;18.86;84.60;99242.88;4999878;28;20049;-94
2023/06/19 00:05:59;;;;;;;14.10;9.00;;;;;;;18.87;84.75;99236.31;4990416;28;20025;-94
2023/06/19 00:08:24;;;;;;;12.43;8.80;;;;;;;18.91;84.66;99237.25;4990542;28;20423;-95
2023/06/19 00:10:50;;;;;;;11.82;8.43;;;;;;;19.04;83.53;99241.69;4991893;28;20022;-95
2023/06/19 00:13:15;;;;;;;11.02;8.55;;;;;;;19.00;83.72;99238.00;4989848;28;20017;-95
2023/06/19 00:15:41;;;;;;;10.98;9.10;;;;;;;18.97;83.48;99244.16;4990424;28;20009;-94
2023/06/19 00:18:06;;;;;;;11.25;8.50;;;;;;;18.98;83.87;99241.06;4990749;28;20036;-95
2023/06/19 00:20:36;;;;;;;12.48;8.63;;;;;;;19.12;82.32;99238.13;4990099;28;20578;-94
2023/06/19 00:23:01;;;;;;;13.63;8.85;;;;;;;19.11;82.64;99243.91;4989769;28;20480;-94
2023/06/19 00:25:27;;;;;;;11.68;8.20;;;;;;;19.15;82.86;99247.56;4990021;28;20029;-95
2023/06/19 00:27:52;;;;;;;10.10;8.25;;;;;;;19.29;81.87;99252.81;4989641;28;20041;-94
2023/06/19 00:30:18;;;;;;;10.82;7.90;;;;;;;19.08;82.65;99234.44;4988410;28;20406;-95
2023/06/19 00:32:46;;;;;;;13.60;8.57;;;;;;;19.07;82.37;99240.22;4989055;28;20045;-94
2023/06/19 00:35:15;;;;;;;15.38;8.98;;;;;;;19.09;82.54;99252.44;4990075;28;20031;-96
2023/06/19 00:37:44;;;;;;;13.98;8.23;;;;;;;19.03;82.32;99248.28;4988755;28;20113;-94
2023/06/19 00:40:14;;;;;;;13.48;8.52;;;;;;;18.93;82.97;99246.72;5004483;28;20021;-95
2023/06/19 00:42:39;;;;;;;13.25;8.30;;;;;;;18.88;82.95;99243.34;5004332;28;20499;-94
2023/06/19 00:45:05;;;;;;;14.90;8.05;;;;;;;19.03;82.85;99259.22;4988473;28;20025;-94
2023/06/19 00:47:30;;;;;;;13.75;8.55;;;;;;;19.10;82.67;99255.97;4989367;28;20032;-94
2023/06/19 00:49:56;;;;;;;12.82;8.25;;;;;;;19.14;81.96;99254.97;4989245;28;20018;-94
2023/06/19 00:52:21;;;;;;;10.80;9.07;;;;;;;19.15;81.90;99248.41;4988345;28;20466;-94
2023/06/19 00:54:47;;;;;;;16.85;7.60;;;;;;;19.30;81.24;99259.84;4988455;28;20025;-94
2023/06/19 00:57:12;;;;;;;8.57;7.15;;;;;;;19.35;80.74;99252.28;4988810;28;20088;-94
2023/06/19 00:59:38;;;;;;;11.93;7.93;;;;;;;19.44;80.93;99254.97;4987827;28;20032;-94
2023/06/19 01:02:03;;;;;;;10.73;7.30;;;;;;;19.51;80.67;99257.19;4988989;28;20042;-95
2023/06/19 01:04:29;;;;;;;10.98;7.82;;;;;;;19.36;80.54;99242.97;5021236;28;20051;-94
2023/06/19 01:06:58;;;;;;;10.30;7.47;;;;;;;19.53;80.16;99258.47;5008443;28;20025;-94
2023/06/19 01:09:28;;;;;;;8.65;7.43;;;;;;;19.59;79.74;99256.34;5007729;28;20067;-94
2023/06/19 01:11:56;;;;;;;13.63;7.65;;;;;;;19.56;78.95;99249.59;5023518;28;20538;-94
2023/06/19 01:14:25;;;;;;;13.98;6.93;;;;;;;19.68;78.36;99259.81;5008308;28;20021;-95
2023/06/19 01:16:51;;;;;;;7.88;6.85;;;;;;;19.61;77.61;99248.63;5006677;28;20036;-94
2023/06/19 01:19:21;;;;;;;11.70;6.88;;;;;;;19.63;76.70;99246.34;5023596;28;20029;-95
2023/06/19 01:21:47;;;;;;;14.13;7.43;;;;;;;19.61;77.17;99231.41;5024338;28;20025;-94
2023/06/19 01:24:13;;;;;;;12.57;7.40;;;;;;;19.57;77.35;99243.00;5007972;28;20486;-94
2023/06/19 01:26:38;;;;;;;9.88;7.38;;;;;;;19.59;77.39;99248.94;5007081;28;20044;-94
2023/06/19 01:29:04;;;;;;;9.57;6.82;;;;;;;19.58;77.68;99244.59;5023924;28;20012;-94
2023/06/19 01:32:08;;;;;;;14.07;7.45;;;;;;;19.58;78.00;99252.78;5023507;28;20021;-96
2023/06/19 01:34:33;;;;;;;9.05;7.53;;;;;;;19.35;78.78;99243.31;5014073;28;20044;-94
2023/06/19 01:36:59;;;;;;;12.18;7.68;;;;;;;19.16;80.49;99238.28;5023698;28;20029;-94
2023/06/19 01:39:24;;;;;;;10.00;7.60;;;;;;;19.12;81.37;99248.25;5023436;28;20064;-94
2023/06/19 01:41:50;;;;;;;12.65;7.93;;;;;;;19.03;81.83;99252.94;5021793;28;20016;-94
2023/06/19 01:44:15;;;;;;;10.63;7.60;;;;;;;18.87;82.35;99239.03;5039973;28;20040;-95
2023/06/19 01:46:41;;;;;;;12.52;8.50;;;;;;;18.84;82.42;99242.41;5022274;28;20017;-94
2023/06/19 01:49:09;;;;;;;10.43;8.02;;;;;;;18.81;82.49;99235.69;5024077;28;20025;-95
2023/06/19 01:51:35;;;;;;;10.90;8.38;;;;;;;18.86;82.57;99254.59;5024239;28;20107;-94
2023/06/19 01:54:01;;;;;;;13.05;9.30;;;;;;;18.77;82.71;99251.06;5024192;28;20043;-94
2023/06/19 01:56:26;;;;;;;10.30;7.53;;;;;;;18.83;82.50;99257.19;5024124;28;20021;-95
2023/06/19 01:58:52;;;;;;;13.93;7.72;;;;;;;18.78;82.17;99248.06;5024939;28;20422;-95
2023/06/19 02:01:17;;;;;;;10.65;7.57;;;;;;;18.71;82.92;99249.66;5023698;28;20403;-95
2023/06/19 02:03:43;;;;;;;11.40;7.82;;;;;;;18.71;82.71;99249.66;5025086;28;20511;-95
2023/06/19 02:06:10;;;;;;;11.75;8.75;;;;;;;18.75;82.03;99247.88;5007268;28;20085;-94
2023/06/19 02:08:36;;;;;;;10.20;8.23;;;;;;;18.76;82.40;99263.13;5009813;28;20005;-95
2023/06/19 02:11:01;;;;;;;12.50;8.82;;;;;;;18.62;83.02;99254.34;5024203;28;20021;-93
2023/06/19 02:13:27;;;;;;;10.90;8.05;;;;;;;18.69;82.40;99262.81;5023505;28;20040;-94
2023/06/19 02:15:52;;;;;;;11.07;8.23;;;;;;;18.64;82.45;99268.47;5007160;28;20483;-95
2023/06/19 02:18:18;;;;;;;11.57;8.73;;;;;;;18.52;83.03;99256.28;5024479;28;20094;-94
2023/06/19 02:20:43;;;;;;;13.75;7.85;;;;;;;18.64;81.55;99268.47;5024285;28;20021;-94
2023/06/19 02:23:09;;;;;;;10.95;7.35;;;;;;;18.60;82.00;99262.84;5008578;28;20498;-94
2023/06/19 02:25:35;;;;;;;13.10;7.63;;;;;;;18.47;82.05;99269.25;5038496;28;20029;-94
2023/06/19 02:28:00;;;;;;;13.85;7.00;;;;;;;18.42;81.39;99272.97;5008520;28;20079;-94
2023/06/19 02:30:27;;;;;;;8.10;6.78;;;;;;;18.42;81.04;99262.06;5007947;28;20029;-94
2023/06/19 02:32:53;;;;;;;11.77;7.28;;;;;;;18.47;80.54;99269.25;5023557;28;20029;-94
2023/06/19 02:35:18;;;;;;;11.20;7.20;;;;;;;18.43;80.69;99281.94;5007444;28;20021;-94
2023/06/19 02:37:46;;;;;;;11.70;7.10;;;;;;;18.47;80.70;99278.28;5023596;28;20103;-94
2023/06/19 02:40:12;;;;;;;8.93;6.65;;;;;;;18.44;81.11;99280.84;5007708;28;20017;-94
2023/06/19 02:42:39;;;;;;;9.23;6.93;;;;;;;18.55;80.53;99293.00;5008294;28;20021;-94
2023/06/19 02:45:05;;;;;;;11.38;6.70;;;;;;;18.65;79.95;99283.69;5023199;28;20028;-96
2023/06/19 02:47:31;;;;;;;9.27;6.65;;;;;;;18.63;80.21;99285.94;5008211;28;20005;-94
2023/06/19 02:50:00;;;;;;;10.82;7.07;;;;;;;18.64;80.86;99282.09;5024047;28;20025;-94
2023/06/19 02:52:25;;;;;;;9.57;7.32;;;;;;;18.78;80.16;99296.34;5007570;28;20012;-94
2023/06/19 02:54:51;;;;;;;8.43;6.38;;;;;;;18.68;80.12;99296.69;5026738;28;20005;-94
2023/06/19 02:57:16;;;;;;;11.98;6.57;;;;;;;18.68;79.43;99294.75;5027705;28;20033;-95
2023/06/19 02:59:42;;;;;;;9.40;6.15;;;;;;;18.70;78.37;99288.97;5012009;28;20482;-94
2023/06/19 03:02:07;;;;;;;9.48;6.15;;;;;;;18.66;78.02;99277.91;5028367;28;20032;-94
2023/06/19 03:04:33;;;;;;;10.85;5.95;;;;;;;18.71;77.71;99279.66;5026092;28;20138;-94
2023/06/19 03:06:59;;;;;;;13.63;6.97;;;;;;;18.79;77.35;99289.78;5028436;28;20036;-94
2023/06/19 03:09:24;;;;;;;7.30;6.40;;;;;;;18.93;77.26;99289.59;5027165;28;20029;-94
2023/06/19 03:11:50;;;;;;;8.35;6.22;;;;;;;18.85;77.46;99280.28;5027894;28;20017;-94
2023/06/19 03:14:15;;;;;;;9.73;6.53;;;;;;;18.90;77.18;99279.31;5028330;28;20021;-94
2023/06/19 03:16:41;;;;;;;9.50;6.70;;;;;;;19.02;77.13;99287.59;5027155;28;20021;-94
2023/06/19 03:19:07;;;;;;;7.93;6.30;;;;;;;19.11;77.06;99290.31;5027681;28;20029;-95
2023/06/19 03:21:32;;;;;;;9.15;7.07;;;;;;;19.16;76.64;99285.47;5027264;28;20021;-93
2023/06/19 03:23:58;;;;;;;6.72;6.00;;;;;;;19.08;77.56;99282.78;5027802;28;20036;-94
2023/06/19 03:26:24;;;;;;;12.00;6.85;;;;;;;18.93;78.94;99275.94;5028011;28;20044;-94
2023/06/19 03:28:50;;;;;;;13.15;7.82;;;;;;;18.83;79.95;99279.81;5013383;28;20025;-93
2023/06/19 03:31:15;;;;;;;12.82;7.72;;;;;;;18.77;80.59;99279.16;5011561;28;20021;-94
2023/06/19 03:33:41;;;;;;;13.55;8.02;;;;;;;18.76;79.76;99274.03;5010898;28;20562;-93
2023/06/19 03:36:07;;;;;;;12.73;7.70;;;;;;;18.72;79.39;99268.44;5009542;28;20028;-94
2023/06/19 03:38:35;;;;;;;9.88;7.63;;;;;;;18.86;79.18;99268.22;4995102;28;20025;-95
2023/06/19 03:41:00;;;;;;;12.32;7.55;;;;;;;19.00;79.22;99284.41;5010801;28;20032;-94
2023/06/19 03:43:26;;;;;;;12.88;6.72;;;;;;;18.98;78.74;99279.25;5008139;28;20021;-94
2023/06/19 03:45:53;;;;;;;9.38;6.72;;;;;;;19.05;77.92;99283.41;5026649;28;20025;-94
2023/06/19 03:48:18;;;;;;;10.30;7.00;;;;;;;19.09;77.37;99284.38;5010172;28;20135;-94
2023/06/19 03:50:44;;;;;;;12.38;6.97;;;;;;;19.12;77.54;99284.53;5009576;28;20025;-95
2023/06/19 03:53:09;;;;;;;12.32;8.27;;;;;;;19.09;78.83;99298.00;5005265;28;20407;-94
2023/06/19 03:55:35;;;;;;;11.82;7.10;;;;;;;19.00;78.63;99289.88;4989364;28;20021;-94
2023/06/19 03:58:00;;;;;;;13.57;7.53;;;;;;;19.13;78.46;99288.88;5002715;28;20012;-94
2023/06/19 04:00:27;;;;;;;27.52;9.38;;;;;;;19.26;78.54;99297.13;5013072;28;20037;-94
2023/06/19 04:02:53;;;;;;;14.00;8.38;;;;;;;19.35;77.23;99290.50;5020142;28;20056;-94
2023/06/19 04:05:19;;;;;;;13.07;7.60;;;;;;;19.47;77.22;99295.28;5025666;28;20101;-90
2023/06/19 04:07:45;;;;;;;13.27;7.85;;;;;;;19.51;76.73;99288.03;5006727;28;20484;-91
2023/06/19 04:10:11;;;;;;;11.98;6.72;;;;;;;19.65;76.39;99297.91;5001905;28;20040;-95
2023/06/19 04:12:37;;;;;;;10.52;7.18;;;;;;;19.67;75.69;99296.47;5011276;28;20059;-94
2023/06/19 04:15:03;;;;;;;9.52;6.55;;;;;;;19.70;75.38;99301.28;5011171;28;20060;-94
2023/06/19 04:17:29;;;;;;;8.90;6.57;;;;;;;19.76;74.86;99299.16;5007045;28;20033;-94
2023/06/19 04:19:54;;;;;;;20.40;8.15;;;;;;;19.82;75.64;99292.38;4993219;28;20021;-94
2023/06/19 04:22:20;;;;;;;11.95;6.80;;;;;;;19.80;74.14;99294.63;5026395;28;20020;-94
2023/06/19 04:24:45;;;;;;;19.00;7.47;;;;;;;19.78;73.51;99294.16;5029571;28;20024;-95
2023/06/19 04:27:11;;;;;;;9.85;6.60;;;;;;;19.88;71.46;99296.50;5019980;28;20112;-93
2023/06/19 04:29:36;;;;;;;11.73;6.55;;;;;;;20.01;71.66;99288.38;5008595;28;20033;-95
2023/06/19 04:32:11;;;;;;;13.02;7.47;;;;;;;20.11;69.93;99296.97;5007145;28;20107;-94
2023/06/19 04:34:39;;;;;;;8.52;7.03;;;;;;;20.35;69.22;99301.75;5011418;28;20084;-94
2023/06/19 04:37:05;;;;;;;8.68;6.47;;;;;;;20.36;69.36;99289.69;5008719;28;20021;-94
2023/06/19 04:39:33;;;;;;;11.40;6.50;;;;;;;20.56;69.73;99298.97;5008032;28;20384;-94
2023/06/19 04:42:00;;;;;;;10.38;5.93;;;;;;;20.67;69.38;99287.63;5008799;28;20463;-94
2023/06/19 04:44:25;;;;;;;7.57;6.40;;;;;;;20.80;69.27;99292.00;5008803;28;20026;-93
2023/06/19 04:46:51;;;;;;;9.75;6.10;;;;;;;20.79;69.35;99288.47;5030725;28;20028;-93
2023/06/19 04:49:16;;;;;;;14.77;9.20;;;;;;;20.93;68.56;99301.03;5025873;28;20098;-93
2023/06/19 04:51:42;;;;;;;10.10;5.90;;;;;;;20.86;67.75;99287.91;5044715;28;20028;-95
2023/06/19 04:54:07;;;;;;;12.23;5.90;;;;;;;20.96;67.02;99303.13;5012203;28;20054;-94
2023/06/19 04:56:33;;;;;;;14.60;6.35;;;;;;;21.07;67.39;99298.00;5008589;28;20025;-94
2023/06/19 04:58:59;;;;;;;7.93;5.50;;;;;;;21.17;67.36;99292.88;5022079;28;20030;-94
2023/06/19 05:01:28;;;;;;;8.95;6.55;;;;;;;21.32;66.91;99305.06;5009186;28;20020;-94
2023/06/19 05:03:54;;;;;;;12.55;9.18;;;;;;;21.50;65.31;99318.56;4989695;28;20046;-94
2023/06/19 05:06:26;;;;;;;8.52;5.32;;;;;;;21.56;64.87;99301.56;4991666;28;20063;-95
2023/06/19 05:08:52;;;;;;;13.52;6.32;;;;;;;21.86;64.74;99309.50;5012160;28;20028;-92
2023/06/19 05:11:17;;;;;;;18.85;13.07;;;;;;;21.95;64.64;99303.91;5008373;28;20078;-93
2023/06/19 05:13:43;;;;;;;33.75;27.13;;;;;;;22.20;63.33;99307.38;5001162;28;20037;-92
2023/06/19 05:16:15;;;;;;;10.10;6.40;;;;;;;22.42;61.50;99291.56;4995873;28;20036;-93
2023/06/19 05:18:41;;;;;;;8.93;5.50;;;;;;;22.68;59.91;99288.31;5004877;28;20056;-94
2023/06/19 05:21:10;;;;;;;11.18;6.05;;;;;;;22.72;60.90;99287.28;5000987;28;20030;-94
2023/06/19 05:23:36;;;;;;;8.20;4.45;;;;;;;22.78;58.47;99290.56;4992406;28;20031;-94
2023/06/19 05:26:05;;;;;;;8.38;4.35;;;;;;;22.94;56.11;99283.13;4989834;28;20038;-95
2023/06/19 05:28:32;;;;;;;7.53;3.30;;;;;;;22.98;53.23;99273.03;5025704;28;20029;-95
2023/06/19 05:30:58;;;;;;;7.80;3.80;;;;;;;22.94;53.78;99277.63;5028242;28;20097;-96
2023/06/19 05:33:28;;;;;;;6.53;3.67;;;;;;;23.02;53.36;99286.91;5015293;28;20004;-92
2023/06/19 05:35:54;;;;;;;7.82;3.45;;;;;;;23.00;52.68;99287.22;5024855;28;20022;-90
2023/06/19 05:38:23;;;;;;;7.70;3.45;;;;;;;22.96;52.89;99285.53;5017614;28;20067;-91
2023/06/19 05:40:50;;;;;;;5.30;3.97;;;;;;;22.94;53.96;99290.59;5016161;28;20044;-90
2023/06/19 05:43:44;;;;;;;5.72;4.88;;;;;;;23.11;51.29;99309.47;5008938;28;20064;-94
2023/06/19 05:46:11;;;;;;;6.15;3.70;;;;;;;22.90;52.77;99292.44;4987955;28;20034;-92
2023/06/19 05:48:37;;;;;;;10.07;3.50;;;;;;;22.93;54.44;99292.53;4956146;28;20045;-89
2023/06/19 05:51:04;;;;;;;6.65;4.22;;;;;;;23.03;53.48;99301.41;4964481;28;20038;-91
2023/06/19 05:53:31;;;;;;;4.03;3.13;;;;;;;22.98;52.02;99292.25;4984383;28;20037;-89
2023/06/19 05:55:58;;;;;;;5.53;3.80;;;;;;;23.08;53.28;99307.44;4957860;28;20501;-90
2023/06/19 05:58:25;;;;;;;8.75;7.43;;;;;;;22.97;53.18;99287.94;4956249;28;20098;-92
2023/06/19 06:00:57;;;;;;;5.60;4.28;;;;;;;23.08;53.17;99293.72;4967509;28;20137;-90
2023/06/19 06:03:45;;;;;;;10.60;4.90;;;;;;;23.03;53.48;99285.72;4955281;28;20133;-92
2023/06/19 06:06:10;;;;;;;6.68;4.20;;;;;;;23.15;53.27;99273.88;5037934;28;20049;-89
2023/06/19 06:08:36;;;;;;;6.47;4.53;;;;;;;23.25;53.60;99289.03;4985404;28;20097;-90
2023/06/19 06:11:06;;;;;;;4.53;3.08;;;;;;;23.38;52.51;99299.53;4992533;28;20546;-89
2023/06/19 06:13:32;;;;;;;3.67;3.08;;;;;;;23.38;51.90;99296.00;4991708;28;20018;-92
2023/06/19 06:15:58;;;;;;;5.40;3.65;;;;;;;23.36;51.88;99296.34;5004384;28;20043;-89
2023/06/19 06:18:27;;;;;;;3.63;3.05;;;;;;;23.21;51.85;99277.94;5028873;28;20090;-89
2023/06/19 06:20:53;;;;;;;5.65;3.03;;;;;;;23.16;51.37;99287.25;5012482;28;20128;-89
2023/06/19 06:23:18;;;;;;;4.25;3.63;;;;;;;23.00;51.93;99280.94;5002179;28;20072;-89
2023/06/19 06:25:54;;;;;;;4.80;2.83;;;;;;;23.08;51.24;99284.69;5013808;28;20029;-90
2023/06/19 06:28:19;;;;;;;4.47;3.85;;;;;;;23.13;51.78;99273.41;5011388;28;20037;-91
2023/06/19 06:34:49;;;;;;;;;;;;;;;23.26;52.31;99307.09;4961180;29;20082;-95
2023/06/19 06:37:38;;;;;;;3.92;2.83;;;;;;;23.12;52.14;99269.88;4950745;29;19910;-91
2023/06/19 06:40:11;;;;;;;7.45;3.20;;;;;;;23.19;51.22;99293.97;4947970;28;20126;-90
2023/06/19 06:42:39;;;;;;;4.57;3.10;;;;;;;23.20;51.41;99301.06;4967790;28;20045;-90
2023/06/19 06:45:06;;;;;;;4.25;3.20;;;;;;;23.29;51.66;99289.91;4950030;28;20097;-90
2023/06/19 06:47:32;;;;;;;4.68;3.33;;;;;;;23.24;52.78;99266.22;4951506;28;20030;-89
2023/06/19 06:50:21;;;;;;;8.82;4.85;;;;;;;23.43;51.98;99267.44;4968005;28;20049;-92
2023/06/19 06:52:52;;;;;;;4.35;3.20;;;;;;;23.48;52.77;99276.22;4989596;28;20051;-93
2023/06/19 06:55:17;;;;;;;6.78;3.67;;;;;;;23.74;53.47;99296.81;4947545;28;20038;-92
2023/06/19 06:57:43;;;;;;;6.25;3.50;;;;;;;23.69;53.49;99270.41;4959758;28;20072;-92
2023/06/19 07:00:28;;;;;;;9.32;6.47;;;;;;;23.97;52.25;99295.00;4952155;29;20050;-95
2023/06/19 07:02:54;;;;;;;5.90;3.50;;;;;;;23.93;51.51;99263.88;5016689;28;20038;-92
2023/06/19 07:05:28;;;;;;;6.03;3.40;;;;;;;24.08;51.50;99273.22;5001032;28;20080;-91
2023/06/19 07:07:54;;;;;;;8.38;4.20;;;;;;;24.07;51.68;99268.88;4987419;28;20122;-90
2023/06/19 07:10:19;;;;;;;4.93;3.72;;;;;;;24.14;50.02;99279.25;4991816;28;20120;-90
2023/06/19 07:12:46;;;;;;;7.10;3.42;;;;;;;24.29;50.21;99300.38;5011881;28;20025;-88
2023/06/19 07:15:22;;;;;;;7.05;3.63;;;;;;;24.20;50.25;99283.31;5019265;28;20052;-89
2023/06/19 07:17:48;;;;;;;5.63;4.00;;;;;;;24.32;50.61;99293.34;5040987;28;20044;-92
2023/06/19 07:20:14;;;;;;;4.22;3.30;;;;;;;24.22;49.57;99278.22;5011837;28;20045;-91
2023/06/19 07:22:40;;;;;;;5.50;3.75;;;;;;;24.44;50.05;99287.69;5016283;28;20051;-91
2023/06/19 07:25:07;;;;;;;5.70;3.70;;;;;;;24.50;49.22;99290.97;5025453;28;20107;-91
2023/06/19 07:27:32;;;;;;;3.50;2.90;;;;;;;24.44;49.25;99301.44;5024193;28;20064;-89
2023/06/19 07:30:00;;;;;;;8.45;4.10;;;;;;;24.40;49.52;99273.88;5004582;28;20120;-93
2023/06/19 07:32:26;;;;;;;6.53;3.45;;;;;;;24.60;48.40;99285.66;5012515;28;20031;-94
2023/06/19 07:35:00;;;;;;;5.05;4.25;;;;;;;24.54;48.24;99283.59;5024742;28;20124;-90
2023/06/19 07:37:28;;;;;;;4.63;3.60;;;;;;;24.55;46.85;99298.94;5014320;28;20091;-96
2023/06/19 07:39:59;;;;;;;5.75;3.60;;;;;;;24.48;47.81;99299.56;5014554;28;20021;-95
2023/06/19 07:42:25;;;;;;;7.47;4.03;;;;;;;24.44;47.71;99297.91;5018615;28;20035;-96
2023/06/19 07:44:57;;;;;;;4.53;3.60;;;;;;;24.65;48.78;99314.06;5020137;28;20558;-96
2023/06/19 07:47:22;;;;;;;8.23;3.92;;;;;;;24.69;49.34;99295.66;5035089;28;20029;-96
2023/06/19 07:49:58;;;;;;;;;;;;;;;;;;;;;
2023/06/19 08:01:17;;;;;;;5.53;3.65;;;;;;;25.48;49.89;99324.56;5151878;22;20075;-96
2023/06/19 08:03:43;;;;;;;5.53;3.40;;;;;;;25.38;48.80;99314.97;5027877;28;20049;-96
2023/06/19 08:06:09;;;;;;;6.93;3.85;;;;;;;25.56;49.08;99329.81;4996256;28;20034;-91
2023/06/19 08:08:43;;;;;;;5.90;3.72;;;;;;;25.53;48.88;99307.72;4980073;28;20024;-94
2023/06/19 08:11:12;;;;;;;4.95;3.28;;;;;;;25.43;48.54;99297.34;5012299;28;20029;-90
2023/06/19 08:13:37;;;;;;;7.22;4.35;;;;;;;25.69;48.93;99313.88;4999913;28;20022;-91
2023/06/19 08:16:03;;;;;;;6.78;4.05;;;;;;;25.79;49.10;99315.19;4988803;28;20022;-90
2023/06/19 08:22:05;;;;;;;4.95;3.60;;;;;;;25.80;49.09;99305.75;4999510;28;20102;-92
2023/06/19 08:24:30;;;;;;;8.63;4.15;;;;;;;25.89;47.85;99319.28;4985647;28;20028;-91
2023/06/19 08:26:59;;;;;;;6.95;3.78;;;;;;;26.06;48.02;99323.47;5002655;28;20026;-89
2023/06/19 08:29:51;;;;;;;5.22;3.60;;;;;;;26.12;47.02;99331.03;5001048;28;20447;-92
2023/06/19 08:32:30;;;;;;;;;;;;;;;;;;;;;
2023/06/19 08:35:07;;;;;;;5.60;3.83;;;;;;;25.87;46.84;99318.84;4997124;28;20085;-89
2023/06/19 08:37:36;;;;;;;7.50;3.83;;;;;;;25.77;47.52;99334.06;5009549;28;20017;-91
2023/06/19 08:40:09;;;;;;;6.47;4.10;;;;;;;25.63;46.39;99318.13;5008440;28;20022;-92
2023/06/19 08:42:56;;;;;;;;;;;;;;;25.67;45.59;99342.97;5011900;28;20067;-92
2023/06/19 08:45:28;;;;;;;5.68;3.85;;;;;;;25.48;47.23;99314.34;5015678;28;20441;-88
2023/06/19 08:48:02;;;;;;;5.75;4.20;;;;;;;25.59;49.27;99311.75;4997846;28;20037;-91
2023/06/19 08:50:30;;;;;;;6.43;4.20;;;;;;;25.81;47.63;99337.69;5002663;28;20029;-92
2023/06/19 08:53:51;;;;;;;4.57;3.80;;;;;;;25.63;47.49;99323.66;5017838;28;20049;-91
2023/06/19 08:56:18;;;;;;;9.50;7.27;;;;;;;25.85;47.13;99334.97;5010151;28;20061;-93
2023/06/19 08:58:44;;;;;;;7.07;3.97;;;;;;;25.87;47.72;99316.09;4984581;28;20148;-93
2023/06/19 09:01:10;;;;;;;7.05;4.32;;;;;;;26.07;47.16;99325.88;5006933;28;20053;-93
2023/06/19 09:07:17;;;;;;;4.45;3.95;;;;;;;26.22;46.06;99332.34;5050415;28;20025;-93
2023/06/19 09:09:49;;;;;;;4.10;3.70;;;;;;;26.17;46.66;99314.16;4994947;28;20478;-92
2023/06/19 09:12:15;;;;;;;;;;;;;;;26.53;46.38;99342.19;4995255;28;20025;-94
2023/06/19 09:14:50;;;;;;;12.68;9.32;;;;;;;26.24;46.60;99330.03;5032505;28;19916;-96
2023/06/19 09:17:31;;;;;;;6.22;4.90;;;;;;;25.92;47.11;99316.59;5014598;28;20040;-96
2023/06/19 09:19:57;;;;;;;7.03;5.05;;;;;;;26.26;46.55;99315.84;5030320;28;20029;-92
2023/06/19 09:22:32;;;;;;;7.03;4.10;;;;;;;26.33;46.78;99329.72;4994203;28;20491;-94
2023/06/19 09:25:14;;;;;;;6.82;4.25;;;;;;;26.31;46.38;99313.53;5032264;28;20699;-93
2023/06/19 09:28:06;;;;;;;;;;;;;;;;;;;;;
2023/06/19 09:33:49;;;;;;;4.57;3.97;;;;;;;26.43;46.39;99304.22;4976684;28;20081;-92
2023/06/19 09:36:16;;;;;;;6.57;4.57;;;;;;;26.46;46.41;99309.00;4982588;28;20419;-90
2023/06/19 09:38:58;;;;;;;8.80;4.90;;;;;;;26.54;46.63;99294.09;4967861;28;20042;-96
2023/06/19 09:41:34;;;;;;;4.88;3.78;;;;;;;26.57;46.62;99298.09;4992746;28;20125;-95
2023/06/19 09:44:12;;;;;;;4.57;4.13;;;;;;;26.65;46.76;99323.81;5007375;28;20045;-94
2023/06/19 09:46:38;;;;;;;4.43;4.03;;;;;;;26.65;46.79;99323.81;4975428;28;20040;-94
2023/06/19 09:49:13;;;;;;;8.93;5.18;;;;;;;26.79;47.79;99310.13;4990227;28;20018;-96
2023/06/19 09:51:45;;;;;;;7.13;4.60;;;;;;;26.68;46.89;99303.72;4973030;28;20042;-93
2023/06/19 09:54:10;;;;;;;8.85;4.35;;;;;;;26.83;45.63;99321.22;4987357;28;20030;-95
2023/06/19 09:57:02;;;;;;;4.95;4.30;;;;;;;26.58;46.57;99294.13;4981229;28;20025;-94
2023/06/19 09:59:31;;;;;;;7.28;4.18;;;;;;;26.59;46.67;99299.28;4990421;28;20109;-95
2023/06/19 10:02:26;;;;;;;4.95;4.45;;;;;;;26.83;45.79;99318.47;4958145;28;20449;-96
2023/06/19 10:04:54;;;;;;;6.40;4.60;;;;;;;26.84;46.28;99309.81;4989977;28;20045;-96
2023/06/19 10:07:35;;;;;;;5.63;4.78;;;;;;;26.63;46.54;99293.03;4974948;28;20076;-96
2023/06/19 10:10:12;;;;;;;8.38;4.50;;;;;;;26.93;46.13;99287.38;4982030;28;20038;-96
2023/06/19 10:13:31;;;;;;;5.85;4.38;;;;;;;27.36;46.01;99323.72;5015449;28;20098;-96
2023/06/19 10:21:21;;;;;;;4.60;4.03;;;;;;;27.24;44.58;99291.63;5064197;22;20057;-95
2023/06/19 10:23:57;;;;;;;7.10;4.78;;;;;;;27.18;44.26;99295.88;5052697;28;20032;-96
2023/06/19 10:26:33;;;;;;;5.47;4.50;;;;;;;27.28;45.41;99311.00;5026748;28;20123;-89
2023/06/19 10:29:09;;;;;;;5.70;4.70;;;;;;;27.03;45.96;99311.56;5026423;28;20128;-89
2023/06/19 10:31:34;;;;;;;8.43;4.45;;;;;;;26.99;45.66;99316.25;5024427;28;20061;-86
2023/06/19 10:34:00;;;;;;;6.13;4.70;;;;;;;26.75;44.80;99284.44;5007971;28;20036;-88
2023/06/19 10:37:16;;;;;;;8.40;6.10;;;;;;;26.95;44.73;99298.84;5021405;28;20029;-88
2023/06/19 10:39:51;;;;;;;7.75;4.65;;;;;;;26.97;43.25;99260.56;5002169;28;20108;-89
2023/06/19 10:42:24;;;;;;;5.93;4.90;;;;;;;27.15;42.91;99283.63;4983681;28;20054;-88
2023/06/19 10:44:59;;;;;;;5.55;4.50;;;;;;;27.17;41.96;99266.69;4992395;28;20417;-88
2023/06/19 10:47:28;;;;;;;4.90;4.40;;;;;;;27.21;41.93;99271.03;5027028;28;20029;-87
2023/06/19 10:49:54;;;;;;;7.00;4.43;;;;;;;27.43;40.45;99293.34;5015776;28;20379;-89
2023/06/19 10:52:19;;;;;;;6.53;4.50;;;;;;;27.48;40.50;99283.91;5034028;28;20038;-88
2023/06/19 10:54:45;;;;;;;25.92;19.60;;;;;;;27.52;40.96;99263.41;5016824;28;20035;-87
2023/06/19 11:00:41;;;;;;;5.20;4.03;;;;;;;27.67;40.99;99242.13;5036337;28;20052;-88
2023/06/19 11:03:07;;;;;;;5.47;4.38;;;;;;;27.99;40.50;99247.03;5038061;28;20036;-88
2023/06/19 11:05:33;;;;;;;5.55;4.18;;;;;;;27.77;40.75;99243.38;5045420;28;20073;-90
2023/06/19 11:07:59;;;;;;;5.18;4.00;;;;;;;27.74;40.56;99231.09;5023591;28;20081;-89
2023/06/19 11:10:27;;;;;;;4.85;3.88;;;;;;;27.78;41.42;99240.19;5042510;28;20121;-89
2023/06/19 11:12:58;;;;;;;6.75;4.15;;;;;;;27.89;41.81;99251.38;5022734;28;20069;-90
2023/06/19 11:15:33;;;;;;;4.47;4.07;;;;;;;27.91;42.08;99245.44;5032032;28;20095;-89
2023/06/19 11:18:06;;;;;;;5.10;4.18;;;;;;;27.86;41.86;99249.38;5007316;28;20041;-88
2023/06/19 11:20:43;;;;;;;6.82;4.25;;;;;;;27.57;42.45;99246.41;5029285;28;20061;-88
2023/06/19 11:23:09;;;;;;;4.35;3.95;;;;;;;27.76;42.94;99252.84;5034336;28;20033;-89
2023/06/19 11:25:41;;;;;;;5.25;3.90;;;;;;;27.87;40.54;99248.22;5029386;28;20043;-89
2023/06/19 11:28:17;;;;;;;4.57;3.58;;;;;;;27.70;40.45;99240.56;5033746;28;20503;-89
2023/06/19 11:30:43;;;;;;;4.32;3.80;;;;;;;27.60;41.12;99231.84;5022873;28;20055;-86
2023/06/19 11:33:24;;;;;;;4.60;3.72;;;;;;;27.66;40.25;99251.59;5025693;28;20558;-87
2023/06/19 11:35:53;;;;;;;5.60;4.13;;;;;;;27.64;40.60;99267.78;5029520;28;20079;-88
2023/06/19 11:38:28;;;;;;;4.10;3.70;;;;;;;27.50;40.77;99249.16;5034888;28;20051;-89
2023/06/19 11:40:55;;;;;;;5.57;3.80;;;;;;;27.64;41.22;99250.41;5013624;28;20033;-87
2023/06/19 11:43:36;;;;;;;5.80;3.58;;;;;;;27.60;41.18;99259.50;5011878;28;20020;-87
2023/06/19 11:46:02;;;;;;;4.55;3.47;;;;;;;27.41;40.82;99241.22;5042457;28;20033;-86
2023/06/19 11:48:35;;;;;;;4.22;3.35;;;;;;;27.59;40.09;99234.97;5011655;28;20029;-88
2023/06/19 11:51:35;;;;;;;;;;;;;;;;;;;;;
2023/06/19 11:58:27;;;;;;;4.57;3.33;;;;;;;28.08;39.61;99253.03;4980251;28;20053;-96
2023/06/19 12:01:23;;;;;;;4.10;3.20;;;;;;;28.01;40.08;99256.53;4961737;28;20046;-95
